Time;durP1;ratioP1;P1;durP2;ratioP2;P2;SDS_P1;SDS_P2;PMS_P1;PMS_P2;Temp;Humidity;BMP_temperature;BMP_pressure;BME280_temperature;BME280_humidity;BME280_pressure;Samples;Min_cycle;Max_cycle;Signal;HPM_P1;HPM_P2
2021/05/01 00:01:44;;;;;;;55.55;40.78;;;10.60;99.90;;;;;;5023486;28;20134;-80
2021/05/01 00:04:11;;;;;;;56.63;40.20;;;10.60;99.90;;;;;;5021669;28;20085;-79
2021/05/01 00:06:37;;;;;;;55.25;40.58;;;10.60;99.90;;;;;;5020675;28;20054;-79
2021/05/01 00:09:04;;;;;;;59.53;41.47;;;10.50;99.90;;;;;;5021830;28;20149;-83
2021/05/01 00:11:31;;;;;;;58.13;44.03;;;10.40;99.90;;;;;;5018553;28;20548;-78
2021/05/01 00:13:58;;;;;;;59.10;41.97;;;10.30;99.90;;;;;;5017660;28;20136;-79
2021/05/01 00:16:25;;;;;;;59.35;41.03;;;10.20;99.90;;;;;;5016528;28;20053;-79
2021/05/01 00:18:53;;;;;;;55.00;40.30;;;10.10;99.90;;;;;;5019222;28;20104;-79
2021/05/01 00:21:19;;;;;;;55.45;40.10;;;10.10;99.90;;;;;;5017695;28;20050;-79
2021/05/01 00:23:46;;;;;;;59.63;39.78;;;10.00;99.90;;;;;;5017262;28;20136;-79
2021/05/01 00:26:12;;;;;;;57.70;40.67;;;9.90;99.90;;;;;;5017740;28;20189;-77
2021/05/01 00:28:39;;;;;;;54.25;39.88;;;9.80;99.90;;;;;;5022212;28;20491;-80
2021/05/01 00:31:05;;;;;;;54.53;39.65;;;9.70;99.90;;;;;;5023375;28;20062;-80
2021/05/01 00:33:32;;;;;;;54.38;40.08;;;9.70;99.90;;;;;;5024462;28;20054;-80
2021/05/01 00:36:00;;;;;;;58.70;40.28;;;9.70;99.90;;;;;;5024531;28;20065;-80
2021/05/01 00:38:26;;;;;;;61.95;42.05;;;9.70;99.90;;;;;;5025009;28;20139;-81
2021/05/01 00:40:53;;;;;;;58.95;40.38;;;9.60;99.90;;;;;;5025243;28;20118;-79
2021/05/01 00:43:19;;;;;;;59.42;41.83;;;9.50;99.90;;;;;;5024394;28;20050;-80
2021/05/01 00:45:45;;;;;;;65.45;42.45;;;9.50;99.90;;;;;;5024643;28;20088;-84
2021/05/01 00:48:12;;;;;;;66.65;41.85;;;9.40;99.90;;;;;;5019828;28;20088;-81
2021/05/01 00:50:38;;;;;;;57.10;40.47;;;9.30;99.90;;;;;;5027443;28;20485;-79
2021/05/01 00:53:06;;;;;;;59.75;41.33;;;9.20;99.90;;;;;;5023607;28;20109;-80
2021/05/01 00:55:32;;;;;;;58.65;41.58;;;9.20;99.90;;;;;;5024762;28;20180;-80
2021/05/01 00:57:59;;;;;;;60.17;41.70;;;9.10;99.90;;;;;;5024650;28;20061;-80
2021/05/01 01:03:10;;;;;;;65.60;41.47;;;9.00;99.90;;;;;;5030414;28;20064;-82
2021/05/01 01:05:36;;;;;;;65.38;44.35;;;8.90;99.90;;;;;;5030623;28;20050;-80
2021/05/01 01:08:03;;;;;;;62.60;43.42;;;8.80;99.90;;;;;;5030476;28;20073;-82
2021/05/01 01:10:30;;;;;;;63.10;43.17;;;8.80;99.90;;;;;;5031611;28;20054;-81
2021/05/01 01:12:57;;;;;;;65.05;43.95;;;8.70;99.90;;;;;;5032021;28;20054;-81
2021/05/01 01:15:24;;;;;;;63.40;44.40;;;8.60;99.90;;;;;;5030274;28;20089;-81
2021/05/01 01:17:52;;;;;;;63.25;44.10;;;8.60;99.90;;;;;;5030704;28;20056;-83
2021/05/01 01:20:18;;;;;;;68.03;45.13;;;8.50;99.90;;;;;;5031439;28;20076;-80
2021/05/01 01:22:46;;;;;;;68.47;46.08;;;8.50;99.90;;;;;;5031007;28;20061;-81
2021/05/01 01:25:13;;;;;;;72.15;45.63;;;8.50;99.90;;;;;;5028393;28;20141;-80
2021/05/01 01:27:40;;;;;;;70.75;47.80;;;8.50;99.90;;;;;;5025076;28;20092;-82
2021/05/01 01:30:08;;;;;;;68.55;46.40;;;8.50;99.90;;;;;;5021466;28;20046;-82
2021/05/01 01:32:34;;;;;;;69.60;46.35;;;8.50;99.90;;;;;;5022257;28;20100;-79
2021/05/01 01:35:01;;;;;;;68.47;46.25;;;8.50;99.90;;;;;;5023059;28;20045;-80
2021/05/01 01:37:27;;;;;;;74.57;48.47;;;8.50;99.90;;;;;;5023383;28;20046;-79
2021/05/01 01:39:55;;;;;;;76.88;49.78;;;8.50;99.90;;;;;;5025063;28;20120;-82
2021/05/01 01:42:21;;;;;;;72.75;47.40;;;8.40;99.90;;;;;;5025066;28;20074;-81
2021/05/01 01:44:47;;;;;;;71.70;47.72;;;8.40;99.90;;;;;;5025705;28;20073;-80
2021/05/01 01:47:14;;;;;;;76.35;47.97;;;8.40;99.90;;;;;;5025874;28;20041;-80
2021/05/01 01:49:41;;;;;;;76.65;49.80;;;8.30;99.90;;;;;;5027699;28;20136;-83
2021/05/01 01:52:08;;;;;;;77.50;48.80;;;8.40;99.90;;;;;;5027009;28;20046;-81
2021/05/01 01:54:35;;;;;;;74.45;48.40;;;8.40;99.90;;;;;;5028863;28;20057;-82
2021/05/01 01:57:02;;;;;;;75.20;49.97;;;8.30;99.90;;;;;;5025989;28;20081;-80
2021/05/01 01:59:29;;;;;;;84.28;51.72;;;8.30;99.90;;;;;;5023777;28;20131;-81
2021/05/01 02:01:56;;;;;;;79.72;50.00;;;8.30;99.90;;;;;;5021875;28;20085;-80
2021/05/01 02:04:22;;;;;;;80.60;51.90;;;8.20;99.90;;;;;;5024990;28;20645;-81
2021/05/01 02:06:49;;;;;;;79.95;50.70;;;8.20;99.90;;;;;;5024086;28;20124;-82
2021/05/01 02:09:15;;;;;;;77.25;51.45;;;8.20;99.90;;;;;;5024312;28;20113;-81
2021/05/01 02:11:42;;;;;;;78.22;50.95;;;8.10;99.90;;;;;;5027496;28;20046;-80
2021/05/01 02:14:09;;;;;;;81.97;50.97;;;8.00;99.90;;;;;;5029060;28;20149;-79
2021/05/01 02:16:36;;;;;;;81.07;54.97;;;7.90;99.90;;;;;;5028203;28;20096;-82
2021/05/01 02:19:03;;;;;;;84.50;53.65;;;7.90;99.90;;;;;;5033667;28;20077;-79
2021/05/01 02:21:30;;;;;;;86.38;53.28;;;7.90;99.90;;;;;;5026754;28;20057;-79
2021/05/01 02:23:57;;;;;;;82.93;54.42;;;7.90;99.90;;;;;;5022111;28;20053;-79
2021/05/01 02:26:23;;;;;;;89.22;56.10;;;7.90;99.90;;;;;;4993152;23;20043;-80
2021/05/01 02:28:50;;;;;;;85.65;54.17;;;7.90;99.90;;;;;;4958672;28;20074;-81
2021/05/01 02:31:17;;;;;;;87.07;53.22;;;7.80;99.90;;;;;;4960885;28;20133;-80
2021/05/01 02:33:44;;;;;;;86.05;53.42;;;7.80;99.90;;;;;;4961074;28;20492;-79
2021/05/01 02:36:10;;;;;;;88.85;54.88;;;7.80;99.90;;;;;;4960215;28;20134;-78
2021/05/01 02:38:37;;;;;;;87.47;54.47;;;7.80;99.90;;;;;;4961099;28;20082;-79
2021/05/01 02:41:04;;;;;;;86.70;53.63;;;7.80;99.90;;;;;;4960941;28;20483;-79
2021/05/01 02:43:30;;;;;;;88.07;55.50;;;7.70;99.90;;;;;;4965598;28;20082;-79
2021/05/01 02:45:56;;;;;;;88.60;56.08;;;7.80;99.90;;;;;;4966898;28;20078;-79
2021/05/01 02:48:23;;;;;;;85.35;54.28;;;7.80;99.90;;;;;;4960398;28;20079;-79
2021/05/01 02:50:50;;;;;;;87.15;55.33;;;7.80;99.90;;;;;;4958392;28;20093;-78
2021/05/01 02:53:16;;;;;;;86.85;53.70;;;7.70;99.90;;;;;;4956777;28;20110;-78
2021/05/01 02:55:43;;;;;;;87.85;55.50;;;7.70;99.90;;;;;;4959585;28;20269;-79
2021/05/01 02:58:09;;;;;;;95.03;57.13;;;7.60;99.90;;;;;;4960044;28;20090;-80
2021/05/01 03:00:36;;;;;;;92.57;56.83;;;7.50;99.90;;;;;;4958563;28;20085;-78
2021/05/01 03:03:10;;;;;;;94.88;58.45;;;7.40;99.90;;;;;;4954569;28;20142;-78
2021/05/01 03:05:38;;;;;;;93.30;57.90;;;7.40;99.90;;;;;;4959228;28;20067;-80
2021/05/01 03:08:07;;;;;;;91.93;56.35;;;7.40;99.90;;;;;;4958936;28;20079;-79
2021/05/01 03:11:05;;;;;;;96.35;56.55;;;7.30;99.90;;;;;;4961455;28;20323;-78
2021/05/01 03:16:19;;;;;;;95.47;57.65;;;6.80;99.90;;;;;;4954691;28;20051;-79
2021/05/01 03:18:45;;;;;;;93.95;56.83;;;7.10;99.90;;;;;;4964434;28;20057;-78
2021/05/01 03:21:13;;;;;;;92.53;57.70;;;7.10;99.90;;;;;;4958591;28;20575;-77
2021/05/01 03:23:39;;;;;;;101.90;59.85;;;7.10;99.90;;;;;;4958840;28;20130;-78
2021/05/01 03:26:05;;;;;;;91.05;56.40;;;7.10;99.90;;;;;;4959517;28;20057;-79
2021/05/01 03:28:32;;;;;;;95.25;57.55;;;7.10;99.90;;;;;;4962634;28;20592;-78
2021/05/01 03:30:58;;;;;;;94.45;56.63;;;7.10;99.90;;;;;;4961386;28;20062;-78
2021/05/01 03:33:26;;;;;;;94.22;57.65;;;7.10;99.90;;;;;;4958758;28;20309;-77
2021/05/01 03:35:54;;;;;;;92.25;57.03;;;7.10;99.90;;;;;;4959898;28;20047;-79
2021/05/01 03:38:22;;;;;;;93.10;55.05;;;7.10;99.90;;;;;;4963110;28;20057;-78
2021/05/01 03:40:48;;;;;;;88.82;56.22;;;7.10;99.90;;;;;;4963005;28;20062;-78
2021/05/01 03:43:15;;;;;;;92.80;55.67;;;7.10;99.90;;;;;;4964096;28;20082;-79
2021/05/01 03:45:41;;;;;;;91.85;54.28;;;7.10;99.90;;;;;;4962393;28;20058;-79
2021/05/01 03:48:09;;;;;;;88.30;53.78;;;7.10;99.90;;;;;;4959790;28;20055;-79
2021/05/01 03:50:35;;;;;;;99.32;56.40;;;7.20;99.90;;;;;;4960379;28;20423;-79
2021/05/01 03:53:02;;;;;;;96.75;56.60;;;7.20;99.90;;;;;;4959899;28;20147;-79
2021/05/01 03:55:29;;;;;;;87.32;55.47;;;7.20;99.90;;;;;;4960610;28;20082;-79
2021/05/01 03:57:55;;;;;;;93.40;54.67;;;7.20;99.90;;;;;;4961216;28;20134;-79
2021/05/01 04:00:25;;;;;;;91.15;55.53;;;7.10;99.90;;;;;;4963000;28;20055;-79
2021/05/01 04:02:51;;;;;;;96.07;55.08;;;7.10;99.90;;;;;;4964930;28;20047;-79
2021/05/01 04:05:18;;;;;;;91.15;53.83;;;7.20;99.90;;;;;;4962380;28;20094;-78
2021/05/01 04:07:44;;;;;;;90.03;55.58;;;7.10;99.90;;;;;;4961011;28;20054;-78
2021/05/01 04:10:12;;;;;;;88.30;53.38;;;7.10;99.90;;;;;;4961347;28;20520;-79
2021/05/01 04:12:39;;;;;;;89.10;54.55;;;7.10;99.90;;;;;;4960413;28;20061;-78
2021/05/01 04:15:06;;;;;;;94.45;54.63;;;7.20;99.90;;;;;;4960933;28;20195;-79
2021/05/01 04:17:33;;;;;;;90.47;54.42;;;7.10;99.90;;;;;;4960777;28;20187;-79
2021/05/01 04:19:59;;;;;;;87.95;54.10;;;7.20;99.90;;;;;;4964360;28;20055;-79
2021/05/01 04:22:26;;;;;;;90.63;53.05;;;7.10;99.90;;;;;;4970017;28;20082;-80
2021/05/01 04:24:52;;;;;;;82.60;50.58;;;7.10;99.90;;;;;;4971589;28;20039;-80
2021/05/01 04:27:19;;;;;;;86.13;50.45;;;7.20;99.90;;;;;;4968556;28;20055;-81
2021/05/01 04:29:46;;;;;;;83.65;50.60;;;7.20;99.90;;;;;;4963160;28;20074;-81
2021/05/01 04:32:13;;;;;;;86.07;52.22;;;7.10;99.90;;;;;;4960774;28;20114;-81
2021/05/01 04:34:39;;;;;;;80.78;51.10;;;7.10;99.90;;;;;;4963944;28;20089;-81
2021/05/01 04:37:06;;;;;;;84.13;52.47;;;7.10;99.90;;;;;;4962608;28;20139;-80
2021/05/01 04:39:32;;;;;;;82.13;51.13;;;7.30;99.90;;;;;;4963607;28;20109;-80
2021/05/01 04:41:59;;;;;;;77.38;49.80;;;7.30;99.90;;;;;;4963699;28;20543;-81
2021/05/01 04:44:25;;;;;;;80.43;50.70;;;7.40;99.90;;;;;;4963329;28;20055;-80
2021/05/01 04:46:53;;;;;;;77.28;51.25;;;7.50;99.90;;;;;;4962749;28;20082;-81
2021/05/01 04:49:20;;;;;;;80.72;51.03;;;7.50;99.90;;;;;;4962722;28;20134;-78
2021/05/01 04:51:46;;;;;;;79.82;50.67;;;7.50;99.90;;;;;;4959449;28;20107;-79
2021/05/01 04:54:18;;;;;;;78.90;50.40;;;7.60;99.90;;;;;;4960362;28;20146;-78
2021/05/01 04:56:44;;;;;;;83.00;52.60;;;7.60;99.90;;;;;;4962306;28;20089;-79
2021/05/01 04:59:10;;;;;;;81.20;50.33;;;7.60;99.90;;;;;;4960570;28;20063;-79
2021/05/01 05:01:37;;;;;;;78.47;50.45;;;7.70;99.90;;;;;;4957876;28;20055;-78
2021/05/01 05:04:05;;;;;;;78.50;50.85;;;7.70;99.90;;;;;;4960406;28;20358;-79
2021/05/01 05:06:31;;;;;;;79.05;52.05;;;7.70;99.90;;;;;;4964268;28;20138;-80
2021/05/01 05:08:59;;;;;;;85.70;53.25;;;7.60;99.90;;;;;;4965314;28;20059;-80
2021/05/01 05:11:26;;;;;;;90.35;52.83;;;7.60;99.90;;;;;;4965397;28;20055;-79
2021/05/01 05:13:52;;;;;;;84.45;51.13;;;7.50;99.90;;;;;;4965374;28;20460;-79
2021/05/01 05:16:20;;;;;;;85.53;49.97;;;7.60;99.90;;;;;;4964695;28;20051;-79
2021/05/01 05:18:46;;;;;;;86.57;50.80;;;7.70;99.90;;;;;;4960739;28;20145;-78
2021/05/01 05:21:13;;;;;;;81.13;51.65;;;7.60;99.90;;;;;;4958567;28;20130;-79
2021/05/01 05:23:40;;;;;;;71.85;47.58;;;7.60;99.90;;;;;;4962118;28;20110;-79
2021/05/01 05:26:06;;;;;;;69.10;44.53;;;7.90;99.90;;;;;;4961469;28;20051;-78
2021/05/01 05:28:32;;;;;;;63.88;43.72;;;8.30;99.90;;;;;;4960782;28;20051;-79
2021/05/01 05:30:59;;;;;;;57.05;40.65;;;8.80;99.90;;;;;;4961535;28;20075;-79
2021/05/01 05:33:25;;;;;;;56.15;40.50;;;9.30;99.90;;;;;;4962675;28;20086;-80
2021/05/01 05:35:51;;;;;;;54.17;39.67;;;9.60;99.90;;;;;;4963417;28;20110;-80
2021/05/01 05:38:19;;;;;;;55.05;39.38;;;9.90;99.90;;;;;;4963275;28;20134;-79
2021/05/01 05:40:45;;;;;;;49.10;37.50;;;10.20;99.90;;;;;;4961484;28;20051;-79
2021/05/01 05:43:11;;;;;;;50.80;37.28;;;10.50;99.90;;;;;;4961894;28;20064;-79
2021/05/01 05:45:40;;;;;;;46.85;35.38;;;10.80;99.90;;;;;;4962496;28;20083;-79
2021/05/01 05:48:06;;;;;;;52.70;36.20;;;11.20;99.90;;;;;;4961912;28;20055;-80
2021/05/01 05:50:33;;;;;;;48.55;35.58;;;11.70;99.90;;;;;;4963003;28;20713;-80
2021/05/01 05:52:59;;;;;;;45.30;36.35;;;12.30;99.90;;;;;;4962388;28;20086;-79
2021/05/01 05:55:27;;;;;;;44.85;35.67;;;12.60;99.90;;;;;;4960642;28;20133;-78
2021/05/01 05:57:54;;;;;;;46.85;36.25;;;13.10;99.90;;;;;;4958417;28;20054;-80
2021/05/01 06:00:23;;;;;;;43.78;35.10;;;13.40;99.90;;;;;;4959378;28;20485;-78
2021/05/01 06:02:52;;;;;;;43.03;34.00;;;13.80;99.90;;;;;;4960857;28;20138;-80
2021/05/01 06:05:22;;;;;;;42.72;34.63;;;14.20;99.90;;;;;;4960595;28;20164;-79
2021/05/01 06:07:51;;;;;;;49.88;36.28;;;14.20;99.90;;;;;;4960214;28;20575;-80
2021/05/01 06:10:18;;;;;;;43.65;34.00;;;14.40;99.90;;;;;;4960364;28;20063;-80
2021/05/01 06:12:46;;;;;;;42.22;33.92;;;14.50;99.90;;;;;;4960213;28;20093;-81
2021/05/01 06:15:14;;;;;;;39.85;32.47;;;14.90;99.90;;;;;;4959770;28;20074;-81
2021/05/01 06:17:41;;;;;;;46.10;36.45;;;15.20;99.90;;;;;;4960987;28;20053;-81
2021/05/01 06:20:09;;;;;;;41.78;35.42;;;15.00;99.90;;;;;;4959501;28;20059;-80
2021/05/01 06:22:38;;;;;;;46.00;34.10;;;14.90;99.90;;;;;;4963955;28;20110;-80
2021/05/01 06:25:07;;;;;;;41.58;33.28;;;14.80;99.90;;;;;;4970197;28;20058;-79
2021/05/01 06:27:33;;;;;;;43.53;32.63;;;14.80;99.90;;;;;;4957867;28;20143;-80
2021/05/01 06:30:01;;;;;;;42.45;31.00;;;14.70;99.90;;;;;;4967089;28;20047;-80
2021/05/01 06:32:28;;;;;;;37.05;30.55;;;14.40;99.90;;;;;;4947319;28;20523;-80
2021/05/01 06:34:57;;;;;;;35.88;28.77;;;14.50;99.90;;;;;;4949267;29;20065;-79
2021/05/01 06:37:24;;;;;;;37.65;27.65;;;14.60;99.90;;;;;;4946299;28;20102;-79
2021/05/01 06:39:55;;;;;;;31.20;25.45;;;14.90;99.90;;;;;;4946096;28;20055;-78
2021/05/01 06:42:25;;;;;;;35.75;26.17;;;15.10;99.90;;;;;;4949590;29;20078;-79
2021/05/01 06:44:56;;;;;;;33.58;26.27;;;15.30;99.90;;;;;;4945987;28;20047;-79
2021/05/01 06:47:27;;;;;;;37.20;28.27;;;15.40;99.90;;;;;;4949074;29;20075;-78
2021/05/01 06:50:00;;;;;;;35.97;27.45;;;15.30;99.90;;;;;;4934087;29;20107;-80
2021/05/01 06:52:27;;;;;;;30.80;24.88;;;15.40;99.90;;;;;;4936676;29;20047;-80
2021/05/01 06:54:54;;;;;;;29.17;23.35;;;15.50;99.90;;;;;;4938955;29;20098;-79
2021/05/01 06:57:24;;;;;;;28.92;23.70;;;15.40;99.90;;;;;;4935846;29;20044;-79
2021/05/01 06:59:54;;;;;;;33.15;24.42;;;15.40;99.90;;;;;;4937073;29;20055;-79
2021/05/01 07:02:26;;;;;;;29.00;22.42;;;15.80;99.90;;;;;;4940240;29;20305;-80
2021/05/01 07:04:54;;;;;;;28.20;22.90;;;16.30;99.90;;;;;;4940777;29;20059;-80
2021/05/01 07:07:25;;;;;;;31.35;25.30;;;16.90;99.90;;;;;;4939686;29;20072;-80
2021/05/01 07:09:55;;;;;;;27.17;20.38;;;17.00;99.90;;;;;;4941887;29;20171;-80
2021/05/01 07:12:24;;;;;;;23.85;20.67;;;17.20;99.90;;;;;;4948680;28;20047;-79
2021/05/01 07:14:51;;;;;;;28.55;22.15;;;17.50;99.90;;;;;;4959340;28;20596;-79
2021/05/01 07:17:18;;;;;;;33.35;23.80;;;17.50;99.90;;;;;;4959804;28;20078;-79
2021/05/01 07:19:45;;;;;;;28.63;22.20;;;17.10;99.90;;;;;;4960768;28;20163;-79
2021/05/01 07:22:13;;;;;;;33.08;23.25;;;16.10;99.90;;;;;;4962645;28;20086;-79
2021/05/01 07:24:40;;;;;;;24.75;21.58;;;16.30;99.90;;;;;;4962618;28;20492;-79
2021/05/01 07:27:06;;;;;;;30.08;23.83;;;16.50;99.90;;;;;;4961775;28;20603;-79
2021/05/01 07:29:35;;;;;;;28.88;21.23;;;16.40;99.90;;;;;;4960652;28;20056;-79
2021/05/01 07:32:02;;;;;;;24.60;20.98;;;16.80;99.90;;;;;;4964651;28;20047;-79
2021/05/01 07:34:30;;;;;;;25.10;21.90;;;17.20;99.90;;;;;;4962574;28;20357;-78
2021/05/01 07:37:03;;;;;;;28.98;22.35;;;16.90;99.90;;;;;;4964098;28;20048;-79
2021/05/01 07:39:31;;;;;;;27.25;21.67;;;16.20;99.90;;;;;;4964084;28;20090;-79
2021/05/01 07:42:00;;;;;;;28.27;22.42;;;16.10;99.90;;;;;;4963723;28;20059;-79
2021/05/01 07:44:27;;;;;;;27.52;20.35;;;16.10;99.90;;;;;;4964013;28;20051;-80
2021/05/01 07:46:54;;;;;;;24.77;21.98;;;15.80;99.90;;;;;;4963449;28;20111;-80
2021/05/01 07:49:20;;;;;;;28.92;22.42;;;15.60;99.90;;;;;;4963443;28;20108;-80
2021/05/01 07:51:47;;;;;;;28.10;21.95;;;15.30;99.90;;;;;;4966985;28;20061;-80
2021/05/01 07:54:14;;;;;;;35.50;23.75;;;15.30;99.90;;;;;;4969505;28;20082;-79
2021/05/01 07:56:41;;;;;;;29.10;23.52;;;15.20;99.90;;;;;;4966114;28;20051;-78
2021/05/01 07:59:08;;;;;;;33.10;24.50;;;14.90;99.90;;;;;;4969725;28;20138;-80
2021/05/01 08:01:34;;;;;;;29.65;23.30;;;15.00;99.90;;;;;;4968912;28;20062;-81
2021/05/01 08:04:01;;;;;;;32.28;25.27;;;15.20;99.90;;;;;;4969103;28;20081;-80
2021/05/01 08:06:28;;;;;;;30.35;24.50;;;15.30;99.90;;;;;;4968092;28;20067;-79
2021/05/01 08:08:54;;;;;;;27.90;23.52;;;15.60;99.90;;;;;;4968592;28;20051;-78
2021/05/01 08:11:22;;;;;;;31.83;25.50;;;15.80;99.90;;;;;;4964800;28;20648;-79
2021/05/01 08:13:48;;;;;;;32.60;26.52;;;15.80;99.90;;;;;;4966392;28;20058;-80
2021/05/01 08:16:15;;;;;;;32.85;25.25;;;15.70;99.90;;;;;;4968436;28;20085;-81
2021/05/01 08:18:41;;;;;;;36.03;26.27;;;15.60;99.90;;;;;;4964896;28;20111;-81
2021/05/01 08:21:08;;;;;;;37.08;26.15;;;15.30;99.90;;;;;;4963671;28;20079;-77
2021/05/01 08:23:36;;;;;;;32.90;24.60;;;15.40;99.90;;;;;;4960519;28;20082;-79
2021/05/01 08:26:03;;;;;;;31.38;25.52;;;15.50;99.90;;;;;;4989516;23;20124;-81
2021/05/01 08:28:31;;;;;;;32.50;25.70;;;15.40;99.90;;;;;;4978049;28;20114;-80
2021/05/01 08:30:58;;;;;;;34.55;26.45;;;15.60;99.90;;;;;;4976330;28;20420;-79
2021/05/01 08:33:24;;;;;;;32.83;26.50;;;15.70;99.90;;;;;;4975385;28;20269;-79
2021/05/01 08:35:51;;;;;;;31.77;25.80;;;15.90;99.90;;;;;;4975145;28;20086;-79
2021/05/01 08:38:20;;;;;;;31.85;26.23;;;16.00;99.90;;;;;;4975223;28;20055;-79
2021/05/01 08:40:47;;;;;;;32.28;25.45;;;16.30;99.90;;;;;;4975576;28;20460;-78
2021/05/01 08:43:13;;;;;;;32.55;24.90;;;16.20;99.90;;;;;;4975440;28;20152;-79
2021/05/01 08:45:41;;;;;;;36.70;26.58;;;16.10;99.90;;;;;;4975308;28;20054;-78
2021/05/01 08:48:08;;;;;;;32.00;27.25;;;15.90;99.90;;;;;;4975646;28;20051;-77
2021/05/01 08:50:41;;;;;;;33.90;26.52;;;15.50;99.90;;;;;;4975550;28;20069;-78
2021/05/01 08:53:08;;;;;;;28.90;24.77;;;15.20;99.90;;;;;;4975191;28;20499;-78
2021/05/01 08:55:38;;;;;;;30.73;24.42;;;15.10;99.90;;;;;;4975463;28;20526;-78
2021/05/01 08:58:07;;;;;;;34.30;25.77;;;15.20;99.90;;;;;;4975060;28;20116;-78
2021/05/01 09:00:35;;;;;;;32.55;25.90;;;14.80;99.90;;;;;;4975008;28;20707;-79
2021/05/01 09:03:04;;;;;;;32.10;23.58;;;14.80;99.90;;;;;;4974096;28;20154;-78
2021/05/01 09:05:31;;;;;;;32.50;23.15;;;14.70;99.90;;;;;;4975297;28;20142;-77
2021/05/01 09:07:58;;;;;;;31.42;24.23;;;14.80;99.90;;;;;;4975384;28;20157;-78
2021/05/01 09:10:25;;;;;;;31.77;22.85;;;14.90;99.90;;;;;;4975700;28;20578;-78
2021/05/01 09:12:52;;;;;;;29.15;23.58;;;15.20;99.90;;;;;;4975612;28;20050;-78
2021/05/01 09:15:20;;;;;;;33.78;24.45;;;15.50;99.90;;;;;;4974820;28;20134;-76
2021/05/01 09:17:47;;;;;;;29.20;23.67;;;16.10;99.90;;;;;;4974950;28;20134;-77
2021/05/01 09:20:17;;;;;;;29.83;24.17;;;16.20;99.90;;;;;;4975717;28;20184;-77
2021/05/01 09:22:54;;;;;;;33.17;25.15;;;16.30;99.90;;;;;;4974695;28;20051;-77
2021/05/01 09:25:21;;;;;;;29.33;24.05;;;16.40;99.90;;;;;;4973766;28;20082;-78
2021/05/01 09:28:15;;;;;;;30.38;24.35;;;16.50;99.90;;;;;;4973884;28;20459;-78
2021/05/01 09:30:44;;;;;;;27.38;23.38;;;16.70;99.90;;;;;;4951060;28;20544;-77
2021/05/01 09:33:25;;;;;;;28.77;22.85;;;16.50;99.90;;;;;;4974936;28;20090;-78
2021/05/01 09:36:06;;;;;;;30.25;23.30;;;16.20;99.90;;;;;;4974378;28;20479;-77
2021/05/01 09:38:38;;;;;;;26.88;22.85;;;16.40;99.90;;;;;;4975429;28;20050;-78
2021/05/01 09:41:11;;;;;;;29.23;22.35;;;16.40;99.90;;;;;;4974770;28;20144;-78
2021/05/01 09:44:02;;;;;;;25.33;20.52;;;16.40;99.90;;;;;;4974246;28;20077;-78
2021/05/01 09:46:29;;;;;;;26.38;22.42;;;16.40;99.90;;;;;;4974626;28;20058;-80
2021/05/01 09:49:07;;;;;;;27.67;21.70;;;16.20;99.90;;;;;;4974580;28;20054;-79
2021/05/01 09:51:44;;;;;;;26.45;20.65;;;16.10;99.90;;;;;;4974801;28;20097;-78
2021/05/01 09:54:11;;;;;;;26.00;21.38;;;16.00;99.90;;;;;;4974400;28;20137;-79
2021/05/01 09:56:40;;;;;;;26.65;21.30;;;16.00;99.90;;;;;;4973712;28;20046;-77
2021/05/01 09:59:07;;;;;;;30.42;21.98;;;16.00;99.90;;;;;;4974699;28;20047;-78
2021/05/01 10:01:37;;;;;;;26.52;21.85;;;16.00;99.90;;;;;;4975693;28;20137;-78
2021/05/01 10:04:18;;;;;;;30.77;22.10;;;16.10;99.90;;;;;;4975687;28;20085;-78
2021/05/01 10:06:49;;;;;;;26.98;21.95;;;16.00;99.90;;;;;;4974992;28;20098;-78
2021/05/01 10:09:23;;;;;;;28.02;22.60;;;15.60;99.90;;;;;;4974937;28;20051;-79
2021/05/01 10:11:53;;;;;;;25.67;20.63;;;15.40;99.90;;;;;;4974347;28;20093;-78
2021/05/01 10:14:37;;;;;;;22.52;18.00;;;15.30;99.90;;;;;;4974311;28;20046;-78
2021/05/01 10:17:05;;;;;;;25.30;19.10;;;15.40;99.10;;;;;;4973904;28;20078;-78
2021/05/01 10:19:46;;;;;;;25.05;18.02;;;15.50;98.60;;;;;;4979792;28;20118;-79
2021/05/01 10:22:25;;;;;;;28.63;21.27;;;15.40;98.60;;;;;;4975984;28;20129;-79
2021/05/01 10:24:52;;;;;;;25.75;20.73;;;15.30;99.60;;;;;;4974708;28;20134;-77
2021/05/01 10:27:19;;;;;;;27.50;20.05;;;15.50;99.90;;;;;;4973077;28;20093;-77
2021/05/01 10:29:59;;;;;;;29.23;20.13;;;15.60;98.50;;;;;;4974280;28;20051;-78
2021/05/01 10:32:31;;;;;;;23.83;18.77;;;15.50;98.20;;;;;;4974694;28;20423;-79
2021/05/01 10:34:58;;;;;;;25.58;18.70;;;15.50;98.30;;;;;;4974917;28;20415;-79
2021/05/01 10:37:30;;;;;;;21.30;17.73;;;15.70;98.70;;;;;;4974736;28;20053;-78
2021/05/01 10:39:57;;;;;;;22.63;18.10;;;16.10;97.60;;;;;;4974234;28;20550;-78
2021/05/01 10:42:24;;;;;;;23.85;17.80;;;16.20;97.20;;;;;;4975134;28;20050;-79
2021/05/01 10:44:56;;;;;;;24.63;16.63;;;16.40;97.90;;;;;;4976008;28;20065;-79
2021/05/01 10:47:25;;;;;;;21.27;15.93;;;16.20;95.00;;;;;;4974635;28;20134;-78
2021/05/01 10:49:54;;;;;;;20.63;16.52;;;16.10;94.90;;;;;;4974513;28;20442;-77
2021/05/01 10:52:22;;;;;;;19.58;16.15;;;16.10;95.40;;;;;;4976550;28;20051;-78
2021/05/01 10:55:00;;;;;;;21.95;18.67;;;16.10;95.60;;;;;;4976240;28;20121;-78
2021/05/01 10:57:28;;;;;;;19.77;16.70;;;16.20;96.00;;;;;;4975004;28;20046;-76
2021/05/01 11:00:04;;;;;;;20.60;17.45;;;16.20;96.20;;;;;;4974486;28;20455;-78
2021/05/01 11:02:35;;;;;;;21.23;16.42;;;16.20;95.70;;;;;;4974429;28;20047;-79
2021/05/01 11:05:03;;;;;;;20.08;14.93;;;16.50;96.10;;;;;;4974948;28;20050;-78
2021/05/01 11:07:42;;;;;;;20.65;16.00;;;16.80;94.80;;;;;;4974271;28;20185;-78
2021/05/01 11:10:11;;;;;;;21.63;16.50;;;16.80;94.40;;;;;;4974103;28;20105;-79
2021/05/01 11:12:40;;;;;;;21.05;16.20;;;16.70;94.20;;;;;;4974332;28;20051;-79
2021/05/01 11:15:09;;;;;;;22.25;17.08;;;16.70;94.20;;;;;;4973719;28;20077;-79
2021/05/01 11:18:00;;;;;;;16.33;13.23;;;16.70;95.40;;;;;;4975574;28;20047;-80
2021/05/01 11:20:28;;;;;;;14.93;12.73;;;16.60;92.80;;;;;;4975529;28;20061;-79
2021/05/01 11:22:55;;;;;;;15.15;12.32;;;16.50;92.10;;;;;;4975087;28;20086;-79
2021/05/01 11:25:26;;;;;;;17.00;12.68;;;16.30;92.30;;;;;;4977321;28;20051;-78
2021/05/01 11:27:54;;;;;;;15.40;11.95;;;16.20;93.40;;;;;;4975321;28;20492;-79
2021/05/01 11:30:23;;;;;;;15.43;11.85;;;16.30;93.00;;;;;;4976305;28;20527;-80
2021/05/01 11:32:50;;;;;;;14.25;11.13;;;16.50;93.20;;;;;;4975952;28;20134;-78
2021/05/01 11:35:19;;;;;;;15.73;11.63;;;16.50;91.50;;;;;;4976491;28;20504;-78
2021/05/01 11:37:54;;;;;;;13.50;11.70;;;16.60;91.90;;;;;;4975070;28;20082;-76
2021/05/01 11:40:23;;;;;;;17.27;11.50;;;16.70;92.00;;;;;;4976330;28;20111;-78
2021/05/01 11:42:51;;;;;;;14.40;11.20;;;16.70;92.10;;;;;;4976402;28;20086;-76
2021/05/01 11:45:20;;;;;;;13.73;10.93;;;16.80;92.20;;;;;;4975737;28;20521;-79
2021/05/01 11:47:49;;;;;;;14.23;10.98;;;16.90;91.70;;;;;;4975600;28;20046;-77
2021/05/01 11:50:17;;;;;;;14.05;11.13;;;16.90;91.80;;;;;;4976511;28;20145;-77
2021/05/01 11:53:09;;;;;;;13.90;10.73;;;16.80;91.30;;;;;;4976097;28;20221;-77
2021/05/01 11:55:42;;;;;;;12.40;11.02;;;16.80;91.00;;;;;;4976100;28;20196;-78
2021/05/01 11:58:10;;;;;;;14.02;10.07;;;16.80;91.20;;;;;;4977576;28;20370;-78
2021/05/01 12:00:38;;;;;;;12.55;9.18;;;16.90;91.00;;;;;;4977027;28;20452;-79
2021/05/01 12:03:06;;;;;;;14.73;9.95;;;17.10;91.40;;;;;;4978085;28;20101;-79
2021/05/01 12:05:34;;;;;;;12.13;9.75;;;17.20;89.80;;;;;;4976758;28;20090;-80
2021/05/01 12:08:09;;;;;;;10.98;9.30;;;17.10;89.10;;;;;;4976330;28;20051;-79
2021/05/01 12:10:42;;;;;;;12.95;9.93;;;17.10;90.30;;;;;;4977131;28;20050;-79
2021/05/01 12:13:16;;;;;;;11.98;9.70;;;17.00;89.20;;;;;;4977166;28;20055;-79
2021/05/01 12:15:48;;;;;;;12.82;9.95;;;16.80;89.40;;;;;;4976889;28;20133;-79
2021/05/01 12:18:15;;;;;;;11.95;9.18;;;16.40;89.40;;;;;;4976830;28;20338;-79
2021/05/01 12:20:42;;;;;;;14.93;10.30;;;16.30;90.10;;;;;;4978596;28;20054;-79
2021/05/01 12:23:10;;;;;;;11.43;9.23;;;16.10;89.60;;;;;;4976389;28;20190;-79
2021/05/01 12:25:45;;;;;;;12.23;9.75;;;15.90;90.30;;;;;;4976845;28;20463;-79
2021/05/01 12:28:12;;;;;;;12.43;9.05;;;15.80;90.10;;;;;;4976820;28;20446;-81
2021/05/01 12:30:51;;;;;;;10.30;8.93;;;15.70;89.80;;;;;;4976421;28;20499;-78
2021/05/01 12:33:49;;;;;;;11.48;8.77;;;15.70;85.50;;;;;;4976112;28;20054;-79
2021/05/01 12:36:18;;;;;;;8.63;7.53;;;15.70;85.90;;;;;;4975642;28;20082;-78
2021/05/01 12:38:48;;;;;;;10.18;8.27;;;15.60;83.80;;;;;;4974872;28;20101;-79
2021/05/01 12:41:29;;;;;;;11.82;8.85;;;15.70;84.50;;;;;;4976745;28;20062;-77
2021/05/01 12:43:58;;;;;;;10.73;8.32;;;15.60;84.50;;;;;;4975584;28;20055;-78